Strona główna
METAR-TAF:

METAR-TAF

Lotnisko :

Lawrenceville-Vincennes International Airport

Lawrenceville, Illinois, Stany Zjednoczone

Szerokość geograficzna: 38-45-38N, Długość geograficzna: 087-35-56W, wysokość: 131 m

Aktualna obserwacja pogody

Raport powstał 13 minut temu, godzina 21:53 UTC
Wiatr 9 kt od południowy zachód
Temperatura 22°C
Wilgotność 57%
Ciśnienie 1016 hPa
Widzialność: 16.1 km
Przerywane chmury na wysokości 4900 ft
Zachmurzenie całkowite na wysokości 5500 ft

METAR: KLWV 062153Z AUTO 22009KT 10SM BKN049 OVC055 22/13 A2999 RMK AO2 SLP153 T02220128

czas: 17:06 (22:06 UTC)


TAF: brakujący

Obserwacja i prognoza pogody dla ponad 4000 lotnisk (raport METAR i TAF).

Dostępne stacje oznaczono żółtymi i czerwonymi punktami na mapie.

Najedź kursorem aby zobaczyć nazwę stacji.

Kliknij aby zobaczyć obserwacje i prognozy pogody.

Aby zmienić mapę: kliknij na zielony przycisk z czarnym krzyżykiem, aby powiększyć; na zielony przycisk z myślnikiem, aby pomniejszyć; na zielone strzałki, aby przejść do map sąsiednich.


METAR-TAF: